Meteo Giornale » Osservazioni meteo Italia » Gioia Del Colle

ore: 03:55 - Osservazioni Meteo Gioia Del Colle
Lat. 40° 46' N Lon. 16° 56' E Alt. 345 metri s.l.m.

sereno Europe/Rome

23 °C

Sereno

Temp. 24 Ore

22 °C

35 °C

Ovest/Sud-Ovest

22.2 Km/h

Dew point 15 °C

Umidità 60 %

Visibilità  10 Km

Il sole sorge alle ore 05:41

Il sole tramonta alle ore 20:16

Data e Ora Cielo e Fenomeni T °C DP °C Um. % Pres. hPa Vis. km Vento km/h
Oggi h: 03:55 sereno Sereno 23 15 60 1006 10 O/SO 22.2
Oggi h: 02:55 sereno Sereno 24 14 53 1006 10 O/SO 22.2
Oggi h: 01:55 sereno Sereno 25 14 50 1006 10 O 25.9
Oggi h: 00:55 sereno Sereno 25 14 50 1006 10 O/SO 33.3
Ieri h: 23:55 sereno Sereno 26 16 54 1006 10 SO 24
Ieri h: 22:55 sereno Sereno 27 16 50 1006 10 O 24
Ieri h: 21:55 sereno Sereno 27 17 54 1006 10 O 18.5
Ieri h: 20:55 sereno Sereno 27 21 69 1005 10 S 13
Ieri h: 19:55 sereno Sereno 28 21 65 1005 10 S 20.3
Ieri h: 18:55 sereno Sereno 29 18 51 1006 10 S/SE 33.3
Ieri h: 17:55 sereno Sereno 31 15 37 1006 10 S/SE 37
Ieri h: 16:55 sereno Sereno 32 13 31 1007 10 S/SE 40.7
Ieri h: 15:55 sereno Sereno 34 15 32 1008 10 S 38.8
Ieri h: 14:55 sereno Sereno 34 13 28 1008 10 S 38.8
Ieri h: 13:55 sereno Sereno 35 14 28 1009 10 S/SE 38.8
Ieri h: 12:55 sereno Sereno 35 15 30 1010 10 S 33.3
Ieri h: 11:55 sereno Sereno 35 16 32 1011 10 S 20.3
Ieri h: 10:55 sereno Sereno 35 16 32 1011 10 N 9.3
Ieri h: 09:55 sereno Sereno 32 15 35 1012 10 S/SO 9.3
Ieri h: 08:55 sereno Sereno 30 16 42 1012 10 S/SO 9.3
Ieri h: 07:55 sereno Sereno 28 18 54 1012 10 N 5.5
Ieri h: 06:55 sereno Sereno 25 18 65 1012 10 N 3.7
Ieri h: 05:55 sereno Sereno 24 18 69 1013 10 N 5.5
Ieri h: 04:55 sereno Sereno 22 16 68 1013 10 N 1.8